• Join FlightAware (Why Join?)
  • Login
  • US Flag 
04:17AM EDT


 

Airport Tracker/Info


-or-


 

Live Flight TrackerFlight Track Log ✈ AWE2690 ✈ 23-Oct-2013 ✈ KMYR - KCLT

Flight Track Log - Related Links

Times and Time Zones

All times are in EDT time to prevent confusion due to time zone crossing. See the AWE2690 flight status page for this flight to view local times or setup timezone preferences in your user account.

Time Position Orientation Groundspeed Altitude Reporting Facility
EDT Latitude Longitude Course Direction KTS MPH feet Rate Location/Type
11:35AM 33.5981 -78.9056 309° West 223 257 3,200  Level Jacksonville Center
11:36AM 33.5936 -78.9631 265° West 147 169 6,200 3,060 Climbing Jacksonville Center
11:37AM 33.9852 -79.3214 312° West  Level Estimated
11:37AM 33.6478 -79.0256 316° Northwest 143 165 9,400  Level Jacksonville Center
11:38AM 34.0613 -79.4201 320° Northwest  Level Estimated
11:38AM 33.7042 -79.0931 315° West 224 258 10,500  Level Jacksonville Center
11:39AM 34.1148 -79.4895 309° West  Level Estimated
11:39AM 33.7667 -79.1603 318° Northwest 264 304 13,500  Level Jacksonville Center
11:40AM 33.8314 -79.2375 315° West 302 348 15,800 1,200 Climbing Jacksonville Center
11:41AM 33.9008 -79.3272 313° West 338 389 15,900  Climbing Jacksonville Center
11:42AM 33.9719 -79.4144 315° West 359 413 15,900  Level Jacksonville Center
11:43AM 34.0431 -79.4942 317° Northwest 359 413 16,000  Climbing Jacksonville Center
11:44AM 34.1014 -79.5697 313° West 341 392 16,000  Level Jacksonville Center
11:45AM 34.1597 -79.6428 314° West 313 360 16,000  Level Jacksonville Center
11:46AM 34.2136 -79.7136 313° West 304 350 16,000  Level Jacksonville Center
11:47AM 34.2717 -79.7844 315° West 304 350 16,000  Level Jacksonville Center
11:48AM 34.3300 -79.8603 313° West 304 350 16,000  Level Jacksonville Center
11:49AM 34.3858 -79.9336 313° West 304 350 16,000 -120 Level Jacksonville Center
11:50AM 34.4439 -80.0022 316° Northwest 304 350 15,800 -600 Descending Jacksonville Center
11:51AM 34.4997 -80.0808 311° West 304 350 14,800 -1,080 Descending Jacksonville Center
11:52AM 34.5942 -80.2058 313° West 269 310 13,000 -1,020 Descending Atlanta Center
11:53AM 34.6486 -80.2742 314° West 273 314 12,000 -1,020 Descending Atlanta Center
11:54AM 34.7028 -80.3450 313° West 287 330 11,000 -840 Descending Atlanta Center
11:55AM 34.7569 -80.4108 315° West 279 321 10,300 -1,140 Descending Atlanta Center
11:56AM 34.7656 -80.4914 277° West 232 267 8,700 -1,140 Descending Atlanta Center
11:57AM 34.7575 -80.5725 263° West 234 269 8,000 -420 Descending Atlanta Center
11:58AM 34.7494 -80.6539 263° West 236 272 7,900 -1,080 Descending Atlanta Center
11:59AM 34.7389 -80.7275 260° West 226 260 5,900 -1,980 Descending Atlanta Center
12:00PM 34.7303 -80.7986 262° West 236 272 4,100 -900 Descending Atlanta Center
12:02PM 34.7614 -80.8656 300° West 164 189 4,000 -60 Descending Atlanta Center
12:03PM 34.7936 -80.9025 317° Northwest 157 181 4,000  Level Atlanta Center
12:03PM 34.8336 -80.9211 339° North 176 203 4,100  Climbing Atlanta Center
12:04PM 34.8839 -80.9269 355° North 183 211 4,000 -60 Descending Atlanta Center
12:06PM 34.9361 -80.9275 360° North 179 206 4,000  Level Atlanta Center
12:07PM 34.9883 -80.9331 355° North 181 208 4,000  Level Atlanta Center
12:08PM 35.0386 -80.9414 352° North 179 206 4,000 -480 Level Atlanta Center
12:09PM 35.0806 -80.9450 356° North 178 205 3,100 -1,020 Descending Atlanta Center
12:10PM 35.1328 -80.9456 360° North 173 199 2,100 -900 Descending Atlanta Center
12:10PM 35.1661 -80.9519 351° North 152 175 1,400 -780 Descending Atlanta Center